createdAt,value
2022-11-15T00:01:28.525Z,100700.88
2022-11-15T00:05:49.727Z,100702.69
2022-11-15T00:10:09.998Z,100699.22
2022-11-15T00:14:30.795Z,100701.59
2022-11-15T00:18:51.696Z,100703.25
2022-11-15T00:23:11.749Z,100689.81
2022-11-15T00:27:32.178Z,100692.34
2022-11-15T00:31:53.398Z,100687.88
2022-11-15T00:36:13.932Z,100679.09
2022-11-15T00:40:34.305Z,100684.41
2022-11-15T00:44:54.513Z,100675.56
2022-11-15T00:49:14.794Z,100660.50
2022-11-15T00:53:35.501Z,100653.50
2022-11-15T00:57:56.078Z,100648.19
2022-11-15T01:02:16.339Z,100656.03
2022-11-15T01:06:36.745Z,100647.09
2022-11-15T01:11:02.392Z,100656.59
2022-11-15T01:15:22.507Z,100657.25
2022-11-15T01:19:42.838Z,100647.34
2022-11-15T01:24:03.258Z,100635.75
2022-11-15T01:28:23.912Z,100632.81
2022-11-15T01:32:44.020Z,100637.81
2022-11-15T01:37:04.435Z,100633.19
2022-11-15T01:41:28.248Z,100630.25
2022-11-15T01:45:54.719Z,100625.50
2022-11-15T01:50:21.121Z,100619.06
2022-11-15T01:54:44.263Z,100621.56
2022-11-15T01:59:08.016Z,100606.16
2022-11-15T02:03:39.096Z,100605.72
2022-11-15T02:08:01.929Z,100597.63
2022-11-15T02:12:23.165Z,100591.03
2022-11-15T02:16:49.511Z,100586.25
2022-11-15T02:21:42.537Z,100570.88
2022-11-15T02:26:32.064Z,100572.06
2022-11-15T02:31:02.670Z,100564.63
2022-11-15T02:35:22.564Z,100562.50
2022-11-15T02:39:57.776Z,100551.75
2022-11-15T02:44:40.144Z,100542.50
2022-11-15T02:49:00.694Z,100542.16
2022-11-15T02:53:26.430Z,100550.53
2022-11-15T02:57:53.904Z,100546.88
2022-11-15T03:02:52.159Z,100542.94
2022-11-15T03:07:19.737Z,100534.66
2022-11-15T03:11:49.041Z,100537.03
2022-11-15T03:16:16.449Z,100543.72
2022-11-15T03:20:37.559Z,100543.41
2022-11-15T03:25:02.120Z,100534.13
2022-11-15T03:29:28.743Z,100537.97
2022-11-15T03:33:52.656Z,100538.22
2022-11-15T03:38:18.056Z,100534.25
2022-11-15T03:42:55.602Z,100531.13
2022-11-15T03:47:22.432Z,100524.38
2022-11-15T03:51:42.569Z,100531.03
2022-11-15T03:56:02.984Z,100532.41
2022-11-15T04:00:23.593Z,100530.97
2022-11-15T04:04:43.569Z,100539.28
2022-11-15T04:09:03.979Z,100533.66
2022-11-15T04:13:24.232Z,100518.22
2022-11-15T04:17:50.077Z,100513.13
2022-11-15T04:22:28.845Z,100513.63
2022-11-15T04:26:49.238Z,100509.66
2022-11-15T04:31:09.509Z,100515.81
2022-11-15T04:35:29.965Z,100500.38
2022-11-15T04:39:49.922Z,100496.41
2022-11-15T04:44:10.761Z,100496.91
2022-11-15T04:48:31.050Z,100497.56
2022-11-15T04:52:54.000Z,100499.25
2022-11-15T04:57:15.221Z,100512.78
2022-11-15T05:01:36.765Z,100517.78
2022-11-15T05:05:59.999Z,100532.44
2022-11-15T05:10:20.098Z,100528.47
2022-11-15T05:14:40.498Z,100534.16
2022-11-15T05:19:00.744Z,100540.84
2022-11-15T05:23:21.107Z,100540.53
2022-11-15T05:27:41.441Z,100540.03
2022-11-15T05:32:01.562Z,100532.56
2022-11-15T05:36:38.995Z,100530.41
2022-11-15T05:41:00.374Z,100536.06
2022-11-15T05:45:26.472Z,100537.59
2022-11-15T05:49:51.086Z,100532.09
2022-11-15T05:54:12.307Z,100538.09
2022-11-15T05:58:35.716Z,100528.94
2022-11-15T06:02:56.068Z,100540.28
2022-11-15T06:07:16.840Z,100544.59
2022-11-15T06:11:37.050Z,100547.94
2022-11-15T06:15:57.946Z,100553.94
2022-11-15T06:20:18.393Z,100554.63
2022-11-15T06:24:38.590Z,100555.44
2022-11-15T06:28:59.052Z,100561.59
2022-11-15T06:33:19.445Z,100567.75
2022-11-15T06:37:39.619Z,100576.94
2022-11-15T06:41:59.913Z,100567.25
2022-11-15T06:46:20.501Z,100574.72
2022-11-15T06:50:40.841Z,100572.03
2022-11-15T06:55:01.087Z,100574.50
2022-11-15T06:59:21.599Z,100586.81
2022-11-15T07:03:43.443Z,100591.78
2022-11-15T07:08:03.965Z,100586.75
2022-11-15T07:12:24.247Z,100583.97
2022-11-15T07:16:44.411Z,100563.47
2022-11-15T07:21:06.056Z,100575.13
2022-11-15T07:25:26.084Z,100579.47
2022-11-15T07:29:46.247Z,100581.13
2022-11-15T07:34:06.604Z,100578.84
2022-11-15T07:38:26.960Z,100569.53
2022-11-15T07:42:56.976Z,100570.88
2022-11-15T07:47:17.300Z,100573.38
2022-11-15T07:51:37.735Z,100568.88
2022-11-15T07:55:58.137Z,100575.19
2022-11-15T08:00:19.077Z,100568.34
2022-11-15T08:04:39.170Z,100570.19
2022-11-15T08:08:59.502Z,100561.19
2022-11-15T08:13:20.034Z,100548.22
2022-11-15T08:17:40.257Z,100538.72
2022-11-15T08:22:00.379Z,100541.53
2022-11-15T08:26:20.844Z,100537.88
2022-11-15T08:30:43.817Z,100541.19
2022-11-15T08:35:04.332Z,100532.75
2022-11-15T08:39:24.332Z,100534.94
2022-11-15T08:43:44.547Z,100532.59
2022-11-15T08:48:05.042Z,100534.63
2022-11-15T08:52:25.472Z,100526.66
2022-11-15T08:56:45.638Z,100525.00
2022-11-15T09:01:06.473Z,100513.69
2022-11-15T09:05:27.587Z,100518.34
2022-11-15T09:09:47.690Z,100511.69
2022-11-15T09:14:08.139Z,100519.88
2022-11-15T09:18:29.107Z,100520.03
2022-11-15T09:22:49.563Z,100522.19
2022-11-15T09:27:09.748Z,100522.72
2022-11-15T09:31:30.673Z,100525.03
2022-11-15T09:35:51.095Z,100518.72
2022-11-15T09:40:15.891Z,100511.38
2022-11-15T09:44:52.921Z,100518.06
2022-11-15T09:49:16.451Z,100533.72
2022-11-15T09:58:26.559Z,100510.38
2022-11-15T10:02:55.658Z,100510.22
2022-11-15T10:07:05.415Z,100485.03
2022-11-15T10:11:38.322Z,100476.69
2022-11-15T10:15:46.410Z,100474.03
2022-11-15T10:20:06.900Z,100452.34
2022-11-15T10:24:13.813Z,100453.69
2022-11-15T10:28:30.536Z,100452.50
2022-11-15T10:32:35.257Z,100454.47
2022-11-15T10:36:36.917Z,100451.97
2022-11-15T10:40:41.694Z,100442.28
2022-11-15T10:44:45.937Z,100444.44
2022-11-15T10:48:47.713Z,100431.41
2022-11-15T10:52:49.479Z,100425.56
2022-11-15T10:56:57.032Z,100419.69
2022-11-15T11:01:13.625Z,100420.22
2022-11-15T11:05:41.677Z,100410.84
2022-11-15T11:09:44.121Z,100421.19
2022-11-15T11:13:45.866Z,100405.66
2022-11-15T11:18:16.388Z,100405.78
2022-11-15T11:22:33.896Z,100397.88
2022-11-15T11:27:10.979Z,100397.38
2022-11-15T11:31:24.911Z,100379.31
2022-11-15T11:35:38.090Z,100355.28
2022-11-15T11:40:14.283Z,100341.94
2022-11-15T11:44:56.577Z,100345.28
2022-11-15T11:49:11.297Z,100339.59
2022-11-15T11:53:19.476Z,100349.06
2022-11-15T11:57:43.832Z,100331.19
2022-11-15T12:01:46.420Z,100322.00
2022-11-15T12:05:54.459Z,100318.31
2022-11-15T12:10:24.996Z,100319.16
2022-11-15T12:14:34.509Z,100298.63
2022-11-15T12:18:36.623Z,100293.28
2022-11-15T12:23:21.437Z,100290.75
2022-11-15T12:28:03.060Z,100264.88
2022-11-15T12:32:06.621Z,100270.06
2022-11-15T12:36:23.601Z,100258.81
2022-11-15T12:40:44.666Z,100257.44
2022-11-15T12:44:49.580Z,100245.84
2022-11-15T12:48:59.066Z,100236.78
2022-11-15T12:53:34.393Z,100231.34
2022-11-15T12:57:40.414Z,100229.59
2022-11-15T13:01:42.089Z,100217.16
2022-11-15T13:05:43.758Z,100213.72
2022-11-15T13:09:45.407Z,100219.72
2022-11-15T13:13:47.242Z,100209.19
2022-11-15T13:17:54.309Z,100214.28
2022-11-15T13:22:14.821Z,100189.13
2022-11-15T13:26:20.036Z,100186.38
2022-11-15T13:30:24.965Z,100183.59
2022-11-15T13:38:58.508Z,100169.97
2022-11-15T13:43:00.856Z,100164.97
2022-11-15T13:47:15.594Z,100153.00
2022-11-15T13:51:41.379Z,100149.03
2022-11-15T13:55:43.205Z,100139.34
2022-11-15T13:59:51.095Z,100129.69
2022-11-15T14:03:56.849Z,100120.03
2022-11-15T14:08:26.136Z,100110.16
2022-11-15T14:12:30.297Z,100101.94
2022-11-15T14:16:37.641Z,100086.75
2022-11-15T14:20:40.713Z,100078.72
2022-11-15T14:24:48.097Z,100080.41
2022-11-15T14:28:49.786Z,100067.88
2022-11-15T14:32:52.021Z,100072.38
2022-11-15T14:36:53.686Z,100065.38
2022-11-15T14:40:56.810Z,100054.69
2022-11-15T14:44:58.825Z,100048.50
2022-11-15T14:49:00.562Z,100044.84
2022-11-15T14:53:02.590Z,100023.47
2022-11-15T14:57:04.259Z,100024.09
2022-11-15T15:01:20.526Z,100027.59
2022-11-15T15:05:30.893Z,100026.78
2022-11-15T15:09:32.525Z,100020.81
2022-11-15T15:13:34.180Z,100013.16
2022-11-15T15:17:36.136Z,100001.66
2022-11-15T15:21:38.852Z,99991.13
2022-11-15T15:25:41.427Z,100000.16
2022-11-15T15:29:43.125Z,99995.84
2022-11-15T15:33:45.437Z,99981.66
2022-11-15T15:37:48.620Z,99988.81
2022-11-15T15:41:53.531Z,99978.13
2022-11-15T15:45:59.033Z,99983.69
2022-11-15T15:50:00.751Z,99982.50
2022-11-15T15:54:02.597Z,99970.78
2022-11-15T15:58:06.007Z,99970.56
2022-11-15T16:02:12.341Z,99970.78
2022-11-15T16:06:46.265Z,99972.34
2022-11-15T16:10:48.825Z,99967.41
2022-11-15T16:14:50.587Z,99963.63
2022-11-15T16:18:52.317Z,99965.84
2022-11-15T16:22:53.961Z,99969.28
2022-11-15T16:26:55.946Z,99972.47
2022-11-15T16:31:03.897Z,99965.22
2022-11-15T16:35:05.848Z,99961.28
2022-11-15T16:39:11.562Z,99951.78
2022-11-15T16:43:13.460Z,99961.19
2022-11-15T16:47:19.250Z,99950.88
2022-11-15T16:51:21.768Z,99955.06
2022-11-15T16:55:26.111Z,99953.78
2022-11-15T16:59:27.812Z,99954.78
2022-11-15T17:03:32.074Z,99952.50
2022-11-15T17:07:33.772Z,99946.53
2022-11-15T17:11:35.470Z,99944.84
2022-11-15T17:15:37.181Z,99937.88
2022-11-15T17:19:38.809Z,99936.22
2022-11-15T17:23:40.511Z,99930.88
2022-11-15T17:27:42.653Z,99927.56
2022-11-15T17:31:44.725Z,99929.59
2022-11-15T17:35:46.493Z,99929.59
2022-11-15T17:39:48.320Z,99928.78
2022-11-15T17:43:50.296Z,99918.91
2022-11-15T17:47:52.033Z,99922.59
2022-11-15T17:51:53.813Z,99919.75
2022-11-15T17:55:56.323Z,99909.91
2022-11-15T17:59:58.105Z,99916.88
2022-11-15T18:04:02.171Z,99907.88
2022-11-15T18:08:04.102Z,99901.53
2022-11-15T18:12:05.848Z,99912.19
2022-11-15T18:16:11.007Z,99908.34
2022-11-15T18:20:13.200Z,99895.81
2022-11-15T18:24:14.864Z,99896.66
2022-11-15T18:28:16.625Z,99898.13
2022-11-15T18:32:18.612Z,99894.44
2022-11-15T18:36:23.589Z,99895.91
2022-11-15T18:40:25.290Z,99878.06
2022-11-15T18:44:28.768Z,99890.38
2022-11-15T18:48:32.180Z,99877.84
2022-11-15T18:52:33.862Z,99878.50
2022-11-15T18:56:35.751Z,99876.84
2022-11-15T19:00:37.540Z,99891.00
2022-11-15T19:04:39.217Z,99875.00
2022-11-15T19:08:42.464Z,99875.00
2022-11-15T19:12:44.204Z,99876.84
2022-11-15T19:16:50.537Z,99866.97
2022-11-15T19:20:52.312Z,99873.19
2022-11-15T19:24:54.001Z,99860.00
2022-11-15T19:28:58.107Z,99862.50
2022-11-15T19:32:59.790Z,99867.66
2022-11-15T19:37:03.337Z,99859.66
2022-11-15T19:41:07.045Z,99860.47
2022-11-15T19:45:09.224Z,99860.47
2022-11-15T19:49:11.484Z,99860.31
2022-11-15T19:53:13.479Z,99848.78
2022-11-15T19:57:15.139Z,99848.63
2022-11-15T20:01:29.302Z,99836.28
2022-11-15T20:05:31.225Z,99842.44
2022-11-15T20:09:32.876Z,99836.09
2022-11-15T20:13:34.891Z,99831.56
2022-11-15T20:17:36.605Z,99828.91
2022-11-15T20:21:38.480Z,99828.91
2022-11-15T20:25:46.363Z,99824.38
2022-11-15T20:29:48.954Z,99819.88
2022-11-15T20:33:51.775Z,99826.88
2022-11-15T20:37:53.513Z,99823.19
2022-11-15T20:41:55.194Z,99831.81
2022-11-15T20:45:56.969Z,99834.31
2022-11-15T20:50:14.854Z,99826.13
2022-11-15T20:54:20.618Z,99817.13
2022-11-15T20:58:22.295Z,99813.41
2022-11-15T21:02:24.126Z,99798.22
2022-11-15T21:06:26.982Z,99814.44
2022-11-15T21:10:47.490Z,99801.09
2022-11-15T21:14:50.756Z,99798.44
2022-11-15T21:18:53.392Z,99793.91
2022-11-15T21:22:55.156Z,99800.06
2022-11-15T21:26:56.968Z,99788.56
2022-11-15T21:31:00.490Z,99782.22
2022-11-15T21:35:02.228Z,99775.03
2022-11-15T21:39:04.572Z,99767.84
2022-11-15T21:43:08.574Z,99770.31
2022-11-15T21:47:10.300Z,99756.16
2022-11-15T21:51:12.411Z,99768.28
2022-11-15T21:55:14.149Z,99761.28
2022-11-15T21:59:15.843Z,99754.75
2022-11-15T22:03:17.528Z,99759.88
2022-11-15T22:07:19.380Z,99760.53
2022-11-15T22:11:21.256Z,99755.00
2022-11-15T22:15:22.971Z,99752.97
2022-11-15T22:19:24.641Z,99744.56
2022-11-15T22:23:28.138Z,99742.53
2022-11-15T22:27:32.873Z,99734.31
2022-11-15T22:31:34.608Z,99730.66
2022-11-15T22:35:36.921Z,99727.78
2022-11-15T22:39:40.662Z,99718.75
2022-11-15T22:43:42.300Z,99718.56
2022-11-15T22:47:44.001Z,99715.88
2022-11-15T22:51:45.725Z,99714.03
2022-11-15T22:55:52.174Z,99713.84
2022-11-15T22:59:54.029Z,99711.97
2022-11-15T23:03:55.841Z,99704.81
2022-11-15T23:07:57.622Z,99704.81
2022-11-15T23:12:17.968Z,99702.97
2022-11-15T23:16:23.756Z,99701.13
2022-11-15T23:20:42.588Z,99706.47
2022-11-15T23:24:45.437Z,99706.47
2022-11-15T23:28:47.107Z,99697.44
2022-11-15T23:33:07.508Z,99702.78
2022-11-15T23:37:11.695Z,99701.56
2022-11-15T23:41:13.412Z,99697.88
2022-11-15T23:45:15.130Z,99697.03
2022-11-15T23:49:17.034Z,99696.00
2022-11-15T23:53:21.709Z,99692.31
2022-11-15T23:57:23.401Z,99684.31
